Decoded Metar for OIYY (YAZD in IRAN) (IATA:AZD) | Meteo·Mobile Aviation Weather
aviador You're here:

OIYY Decoded Metar

YAZD in IRAN
Report Time2019-02-22 14:00:00
UTC Time2019-02-22 14:11:00
Flight Rules vfr VFR
Wind290° at 04 kt
W.Decomp.*RWY 31: 3.7 kt HW 1.5 kt LCW
W.Rank290° ranks 4
Current wind is below 290° avg. (6.3)
Visibility9999 m
Phenomena:N/A
Clouds:Few 040 Hf
Broken 200 Hf
Expected CloudBase > 8,400 ft AGL from Temp-Dew spread
Ceiling20,000 ft
Temp14°C (ISA +7)
Dew Point-7°C (23% RH)
AAT9.8°C
QNH1017 hPa
Density Alt4,803 ft
Elevation4,055 ft
Report Wrong Elevation
Raw Report
METAR OIYY 221400Z 29004KT 9999 FEW040 BKN200 14/M07 Q1017=

Extra information for OIYY:More info

Metar Taf Metar & Taf Last 4 Metars F.Rules Stats Wind Profile Meteogram Temp Stats Airport Information Weather charts Add Link Nearby VenuesMetar ALERT Operation Metar Decoded Social comments